Time;durP1;ratioP1;P1;durP2;ratioP2;P2;SDS_P1;SDS_P2;PMS_P1;PMS_P2;Temp;Humidity;BMP_temperature;BMP_pressure;BME280_temperature;BME280_humidity;BME280_pressure;Samples;Min_cycle;Max_cycle;Signal;HPM_P1;HPM_P2
2024/01/13 00:02:19;;;;;;;;;49.00;33.00;;;;;-144.62;100.00;60556.56;5034032;28;50986;-75
2024/01/13 00:04:45;;;;;;;;;48.50;37.75;;;;;-144.62;100.00;60556.56;5036559;28;45407;-75
2024/01/13 00:07:10;;;;;;;;;54.00;42.00;;;;;-144.62;100.00;60556.56;5034045;28;45463;-75
2024/01/13 00:09:35;;;;;;;;;50.00;40.50;;;;;-144.62;100.00;60556.56;5038845;27;51175;-75
2024/01/13 00:12:02;;;;;;;;;43.25;33.50;;;;;-144.62;100.00;60556.56;5026461;27;57593;-76
2024/01/13 00:14:27;;;;;;;;;58.00;42.75;;;;;-144.62;100.00;60556.56;5039190;28;45347;-75
2024/01/13 00:16:52;;;;;;;;;49.00;31.75;;;;;-144.62;100.00;60556.56;5033975;28;45396;-75
2024/01/13 00:19:18;;;;;;;;;58.25;41.75;;;;;-144.62;100.00;60556.56;5038578;28;55845;-75
2024/01/13 00:21:43;;;;;;;;;63.50;45.25;;;;;-144.62;100.00;60556.56;5034330;28;49742;-75
2024/01/13 00:24:08;;;;;;;;;61.75;41.50;;;;;-144.62;100.00;60556.56;5037681;28;45443;-75
2024/01/13 00:26:33;;;;;;;;;55.50;41.75;;;;;-144.62;100.00;60556.56;5035834;28;45492;-75
2024/01/13 00:28:59;;;;;;;;;63.00;44.50;;;;;-144.62;100.00;60556.56;5036207;28;46449;-75
2024/01/13 00:31:24;;;;;;;;;62.00;43.50;;;;;-144.62;100.00;60556.56;5036211;28;45511;-75
2024/01/13 00:33:49;;;;;;;;;65.50;41.00;;;;;-144.62;100.00;60556.56;5040359;28;52716;-75
2024/01/13 00:36:15;;;;;;;;;55.50;41.50;;;;;-144.62;100.00;60556.56;5040061;28;47210;-75
2024/01/13 00:38:40;;;;;;;;;48.00;36.00;;;;;-144.62;100.00;60556.56;5041943;28;46243;-76
2024/01/13 00:41:05;;;;;;;;;60.00;43.50;;;;;-144.62;100.00;60556.56;5035302;28;49614;-75
2024/01/13 00:43:31;;;;;;;;;48.50;39.25;;;;;-144.62;100.00;60556.56;5036001;28;45352;-75
2024/01/13 00:45:56;;;;;;;;;51.00;34.75;;;;;-144.62;100.00;60556.56;5037692;28;45281;-76
2024/01/13 00:48:22;;;;;;;;;56.00;36.75;;;;;-144.62;100.00;60556.56;5037588;28;45963;-75
2024/01/13 00:50:47;;;;;;;;;45.50;38.00;;;;;-144.62;100.00;60556.56;5039583;28;45379;-75
2024/01/13 00:53:12;;;;;;;;;46.75;34.25;;;;;-144.62;100.00;60556.56;5035893;28;45224;-74
2024/01/13 00:55:37;;;;;;;;;57.75;41.50;;;;;-144.62;100.00;60556.56;5035075;28;45332;-75
2024/01/13 00:58:03;;;;;;;;;57.00;41.00;;;;;-144.62;100.00;60556.56;5040518;28;54071;-76
2024/01/13 01:00:28;;;;;;;;;57.25;43.00;;;;;-144.62;100.00;60556.56;5038582;27;45244;-75
2024/01/13 01:02:54;;;;;;;;;52.25;34.25;;;;;-144.62;100.00;60556.56;5039394;28;45286;-76
2024/01/13 01:05:19;;;;;;;;;44.00;36.50;;;;;-144.62;100.00;60556.56;5038293;28;48117;-75
2024/01/13 01:07:44;;;;;;;;;41.25;35.75;;;;;-144.62;100.00;60556.56;5037973;27;50965;-75
2024/01/13 01:10:10;;;;;;;;;40.75;29.25;;;;;-144.62;100.00;60556.56;5039712;28;45485;-75
2024/01/13 01:12:35;;;;;;;;;45.00;34.25;;;;;-144.62;100.00;60556.56;5037246;27;45271;-75
2024/01/13 01:15:01;;;;;;;;;50.50;38.25;;;;;-144.62;100.00;60556.56;5039388;28;45344;-75
2024/01/13 01:17:26;;;;;;;;;49.50;33.25;;;;;-144.62;100.00;60556.56;5037441;28;45533;-75
2024/01/13 01:19:51;;;;;;;;;50.75;37.25;;;;;-144.62;100.00;60556.56;5040204;28;45706;-75
2024/01/13 01:22:16;;;;;;;;;45.50;37.50;;;;;-144.62;100.00;60556.56;5038402;28;45409;-75
2024/01/13 01:24:42;;;;;;;;;45.25;35.25;;;;;-144.62;100.00;60556.56;5040844;28;45563;-76
2024/01/13 01:27:07;;;;;;;;;49.00;33.50;;;;;-144.62;100.00;60556.56;5036258;28;45495;-75
2024/01/13 01:29:32;;;;;;;;;43.25;33.00;;;;;-144.62;100.00;60556.56;5037246;27;45551;-76
2024/01/13 01:31:58;;;;;;;;;41.00;36.50;;;;;-144.62;100.00;60556.56;5036127;28;45478;-75
2024/01/13 01:34:23;;;;;;;;;41.00;31.50;;;;;-144.62;100.00;60556.56;5040431;28;46388;-76
2024/01/13 01:36:48;;;;;;;;;44.00;34.75;;;;;-144.62;100.00;60556.56;5039268;28;45426;-75
2024/01/13 01:39:14;;;;;;;;;45.50;32.25;;;;;-144.62;100.00;60556.56;5036820;28;45459;-76
2024/01/13 01:41:39;;;;;;;;;42.75;31.00;;;;;-144.62;100.00;60556.56;5026807;28;45836;-75
2024/01/13 01:44:05;;;;;;;;;42.00;30.75;;;;;-144.62;100.00;60556.56;5040071;28;45234;-75
2024/01/13 01:46:31;;;;;;;;;43.25;33.00;;;;;-144.62;100.00;60556.56;5031959;28;46860;-75
2024/01/13 01:48:58;;;;;;;;;43.50;33.75;;;;;-144.62;100.00;60556.56;5041133;28;45442;-76
2024/01/13 01:51:25;;;;;;;;;31.00;21.00;;;;;-144.62;100.00;60556.56;5033824;28;45340;-75
2024/01/13 01:53:51;;;;;;;;;42.00;30.75;;;;;-144.62;100.00;60556.56;5040925;27;45505;-75
2024/01/13 01:56:25;;;;;;;;;55.25;32.25;;;;;-144.62;100.00;60556.56;5034379;28;45443;-75
2024/01/13 01:58:53;;;;;;;;;50.00;34.00;;;;;-144.62;100.00;60556.56;5039583;28;45360;-75
2024/01/13 02:01:19;;;;;;;;;45.50;32.25;;;;;-144.62;100.00;60556.56;5035593;28;45410;-75
2024/01/13 02:03:46;;;;;;;;;43.00;31.00;;;;;-144.62;100.00;60556.56;5038994;27;45424;-76
2024/01/13 02:06:11;;;;;;;;;42.00;34.75;;;;;-144.62;100.00;60556.56;5028658;28;45499;-75
2024/01/13 02:08:37;;;;;;;;;57.00;34.50;;;;;-144.62;100.00;60556.56;5040941;27;45254;-75
2024/01/13 02:11:02;;;;;;;;;45.00;31.50;;;;;-144.62;100.00;60556.56;5038855;28;45407;-75
2024/01/13 02:13:27;;;;;;;;;45.25;36.50;;;;;-144.62;100.00;60556.56;5041121;28;45487;-75
2024/01/13 02:15:53;;;;;;;;;42.75;33.50;;;;;-144.62;100.00;60556.56;5033721;28;47522;-75
2024/01/13 02:18:18;;;;;;;;;33.75;27.25;;;;;-144.62;100.00;60556.56;5040802;28;45312;-75
2024/01/13 02:20:43;;;;;;;;;47.50;28.25;;;;;-144.62;100.00;60556.56;5035892;28;56572;-76
2024/01/13 02:23:09;;;;;;;;;38.25;26.25;;;;;-144.62;100.00;60556.56;5040439;28;45298;-75
2024/01/13 02:25:34;;;;;;;;;34.00;24.25;;;;;-144.62;100.00;60556.56;5037370;28;46466;-76
2024/01/13 02:27:59;;;;;;;;;42.00;27.00;;;;;-144.62;100.00;60556.56;5039529;27;45389;-76
2024/01/13 02:30:24;;;;;;;;;41.25;29.75;;;;;-144.62;100.00;60556.56;5038559;27;45468;-75
2024/01/13 02:32:50;;;;;;;;;36.00;28.50;;;;;-144.62;100.00;60556.56;5040947;27;45446;-75
2024/01/13 02:35:15;;;;;;;;;41.75;29.50;;;;;-144.62;100.00;60556.56;5035977;28;47576;-75
2024/01/13 02:37:40;;;;;;;;;46.50;37.25;;;;;-144.62;100.00;60556.56;5039293;28;45346;-75
2024/01/13 02:40:09;;;;;;;;;39.50;27.00;;;;;-144.62;100.00;60556.56;5038161;28;45302;-75
2024/01/13 02:42:35;;;;;;;;;41.25;32.00;;;;;-144.62;100.00;60556.56;5038142;28;45273;-75
2024/01/13 02:45:00;;;;;;;;;46.00;34.25;;;;;-144.62;100.00;60556.56;5038544;27;45423;-75
2024/01/13 02:47:36;;;;;;;;;37.00;29.25;;;;;-144.62;100.00;60556.56;5036017;28;47430;-75
2024/01/13 02:50:02;;;;;;;;;42.75;35.00;;;;;-144.62;100.00;60556.56;5037351;27;45340;-75
2024/01/13 02:52:27;;;;;;;;;31.75;25.75;;;;;-144.62;100.00;60556.56;5035740;28;45423;-75
2024/01/13 02:54:52;;;;;;;;;45.00;31.00;;;;;-144.62;100.00;60556.56;5038716;27;45873;-74
2024/01/13 02:57:17;;;;;;;;;46.25;32.50;;;;;-144.62;100.00;60556.56;5033905;28;45891;-75
2024/01/13 02:59:43;;;;;;;;;40.50;27.50;;;;;-144.62;100.00;60556.56;5040040;28;45360;-75
2024/01/13 03:02:08;;;;;;;;;34.75;25.50;;;;;-144.62;100.00;60556.56;5031802;28;45335;-75
2024/01/13 03:04:33;;;;;;;;;30.50;25.25;;;;;-144.62;100.00;60556.56;5039719;28;62350;-75
2024/01/13 03:06:59;;;;;;;;;27.50;25.50;;;;;-144.62;100.00;60556.56;5033291;28;47711;-75
2024/01/13 03:09:24;;;;;;;;;35.75;29.00;;;;;-144.62;100.00;60556.56;5040215;27;45225;-75
2024/01/13 03:11:49;;;;;;;;;33.25;26.00;;;;;-144.62;100.00;60556.56;5033161;28;45308;-75
2024/01/13 03:14:14;;;;;;;;;44.50;29.25;;;;;-144.62;100.00;60556.56;5040041;28;46543;-75
2024/01/13 03:16:40;;;;;;;;;39.25;28.00;;;;;-144.62;100.00;60556.56;5034069;28;45407;-75
2024/01/13 03:19:06;;;;;;;;;30.25;23.50;;;;;-144.62;100.00;60556.56;5039028;28;45425;-75
2024/01/13 03:21:31;;;;;;;;;31.75;27.50;;;;;-144.62;100.00;60556.56;5030836;28;45636;-75
2024/01/13 03:23:57;;;;;;;;;34.75;25.00;;;;;-144.62;100.00;60556.56;5037081;28;46245;-75
2024/01/13 03:26:22;;;;;;;;;36.50;22.00;;;;;-144.62;100.00;60556.56;5034663;27;45336;-75
2024/01/13 03:28:47;;;;;;;;;42.50;22.00;;;;;-144.62;100.00;60556.56;5027356;28;45419;-75
2024/01/13 03:31:13;;;;;;;;;21.75;18.25;;;;;-144.62;100.00;60556.56;5037132;28;45738;-75
2024/01/13 03:33:39;;;;;;;;;36.75;24.25;;;;;-144.62;100.00;60556.56;5038966;28;45501;-75
2024/01/13 03:36:04;;;;;;;;;28.00;21.50;;;;;-144.62;100.00;60556.56;5036591;28;45481;-75
2024/01/13 03:38:30;;;;;;;;;22.25;19.00;;;;;-144.62;100.00;60556.56;5039482;27;45225;-75
2024/01/13 03:40:55;;;;;;;;;23.50;16.75;;;;;-144.62;100.00;60556.56;5036544;28;45567;-75
2024/01/13 03:43:20;;;;;;;;;26.50;20.75;;;;;-144.62;100.00;60556.56;5032128;28;65267;-75
2024/01/13 03:45:45;;;;;;;;;19.75;15.75;;;;;-144.62;100.00;60556.56;5037945;28;45520;-75
2024/01/13 03:48:11;;;;;;;;;31.50;23.50;;;;;-144.62;100.00;60556.56;5032906;28;45244;-75
2024/01/13 03:50:36;;;;;;;;;27.00;17.50;;;;;-144.62;100.00;60556.56;5035132;27;45463;-75
2024/01/13 03:53:02;;;;;;;;;21.50;18.75;;;;;-144.62;100.00;60556.56;5036667;28;51569;-75
2024/01/13 03:55:27;;;;;;;;;32.25;17.25;;;;;-144.62;100.00;60556.56;5036202;28;45225;-75
2024/01/13 03:57:52;;;;;;;;;28.50;19.75;;;;;-144.62;100.00;60556.56;5035633;28;48905;-75
2024/01/13 04:00:19;;;;;;;;;34.25;24.50;;;;;-144.62;100.00;60556.56;5037408;28;45258;-75
2024/01/13 04:02:44;;;;;;;;;39.00;28.25;;;;;-144.62;100.00;60556.56;5035796;28;45421;-75
2024/01/13 04:05:09;;;;;;;;;34.25;27.00;;;;;-144.62;100.00;60556.56;5036778;27;45831;-75
2024/01/13 04:07:35;;;;;;;;;27.25;21.25;;;;;-144.62;100.00;60556.56;5034241;27;45418;-75
2024/01/13 04:10:00;;;;;;;;;28.00;21.75;;;;;-144.62;100.00;60556.56;5041052;28;45226;-75
2024/01/13 04:12:25;;;;;;;;;29.50;23.25;;;;;-144.62;100.00;60556.56;5035554;28;47394;-75
2024/01/13 04:14:51;;;;;;;;;29.75;21.75;;;;;-144.62;100.00;60556.56;5037672;27;45563;-75
2024/01/13 04:17:16;;;;;;;;;36.25;31.25;;;;;-144.62;100.00;60556.56;5039024;28;45428;-75
2024/01/13 04:19:42;;;;;;;;;27.50;24.75;;;;;-144.62;100.00;60556.56;5042172;28;45238;-75
2024/01/13 04:22:07;;;;;;;;;28.50;20.00;;;;;-144.62;100.00;60556.56;5038281;28;54440;-75
2024/01/13 04:24:33;;;;;;;;;24.00;20.75;;;;;-144.62;100.00;60556.56;5044375;28;52551;-75
2024/01/13 04:26:58;;;;;;;;;37.00;24.50;;;;;-144.62;100.00;60556.56;5038204;27;45249;-75
2024/01/13 04:29:24;;;;;;;;;33.00;24.50;;;;;-144.62;100.00;60556.56;5042262;28;45453;-75
2024/01/13 04:31:49;;;;;;;;;33.50;25.75;;;;;-144.62;100.00;60556.56;5038983;27;45579;-75
2024/01/13 04:34:14;;;;;;;;;32.50;27.25;;;;;-144.62;100.00;60556.56;5041813;28;57996;-75
2024/01/13 04:36:40;;;;;;;;;33.00;23.75;;;;;-144.62;100.00;60556.56;5039819;28;49462;-75
2024/01/13 04:39:05;;;;;;;;;26.75;24.00;;;;;-144.62;100.00;60556.56;5042641;28;45426;-74
2024/01/13 04:41:30;;;;;;;;;39.75;31.25;;;;;-144.62;100.00;60556.56;5034196;28;59293;-75
2024/01/13 04:43:55;;;;;;;;;34.00;25.50;;;;;-144.62;100.00;60556.56;5036244;28;45365;-75
2024/01/13 04:46:21;;;;;;;;;33.75;27.00;;;;;-144.62;100.00;60556.56;5028794;28;45333;-75
2024/01/13 04:48:46;;;;;;;;;29.75;22.25;;;;;-144.62;100.00;60556.56;5042621;27;46381;-75
2024/01/13 04:51:12;;;;;;;;;35.50;26.00;;;;;-144.62;100.00;60556.56;5037677;28;46510;-75
2024/01/13 04:53:37;;;;;;;;;25.25;22.00;;;;;-144.62;100.00;60556.56;5040697;28;45306;-75
2024/01/13 04:56:03;;;;;;;;;22.75;19.75;;;;;-144.62;100.00;60556.56;5037047;28;45262;-75
2024/01/13 04:58:28;;;;;;;;;28.75;24.25;;;;;-144.62;100.00;60556.56;5041214;28;45538;-75
2024/01/13 05:00:54;;;;;;;;;28.25;21.50;;;;;-144.62;100.00;60556.56;5035422;28;45531;-75
2024/01/13 05:03:19;;;;;;;;;42.00;24.75;;;;;-144.62;100.00;60556.56;5041547;28;45246;-75
2024/01/13 05:05:44;;;;;;;;;28.25;21.25;;;;;-144.62;100.00;60556.56;5032579;28;49066;-75
2024/01/13 05:08:10;;;;;;;;;29.50;23.50;;;;;-144.62;100.00;60556.56;5040960;27;45356;-75
2024/01/13 05:10:35;;;;;;;;;35.50;27.50;;;;;-144.62;100.00;60556.56;5036993;28;52010;-75
2024/01/13 05:13:00;;;;;;;;;25.50;23.00;;;;;-144.62;100.00;60556.56;5039493;28;47981;-75
2024/01/13 05:15:25;;;;;;;;;33.75;28.00;;;;;-144.62;100.00;60556.56;5036819;28;45528;-75
2024/01/13 05:17:51;;;;;;;;;30.00;25.00;;;;;-144.62;100.00;60556.56;5037522;28;45343;-75
2024/01/13 05:20:16;;;;;;;;;33.50;20.50;;;;;-144.62;100.00;60556.56;5038302;28;45481;-75
2024/01/13 05:22:41;;;;;;;;;27.00;22.75;;;;;-144.62;100.00;60556.56;5039813;28;45493;-75
2024/01/13 05:25:08;;;;;;;;;30.50;22.25;;;;;-144.62;100.00;60556.56;5039710;28;45441;-75
2024/01/13 05:27:33;;;;;;;;;46.50;27.00;;;;;-144.62;100.00;60556.56;5040469;28;45323;-75
2024/01/13 05:29:58;;;;;;;;;31.75;22.75;;;;;-144.62;100.00;60556.56;5039362;28;45881;-75
2024/01/13 05:32:24;;;;;;;;;28.75;21.75;;;;;-144.62;100.00;60556.56;5040938;27;53026;-75
2024/01/13 05:34:49;;;;;;;;;35.25;23.75;;;;;-144.62;100.00;60556.56;5039450;28;45369;-75
2024/01/13 05:37:14;;;;;;;;;30.25;21.25;;;;;-144.62;100.00;60556.56;5038370;28;45472;-75
2024/01/13 05:39:40;;;;;;;;;25.75;19.25;;;;;-144.62;100.00;60556.56;5040170;28;45445;-75
2024/01/13 05:42:07;;;;;;;;;26.50;21.00;;;;;-144.62;100.00;60556.56;5031772;28;47317;-75
2024/01/13 05:44:32;;;;;;;;;34.75;25.25;;;;;-144.62;100.00;60556.56;5041482;28;45310;-75
2024/01/13 05:46:57;;;;;;;;;26.00;20.25;;;;;-144.62;100.00;60556.56;5033921;28;46258;-75
2024/01/13 05:49:23;;;;;;;;;26.00;21.25;;;;;-144.62;100.00;60556.56;5036433;28;57825;-75
2024/01/13 05:51:48;;;;;;;;;30.75;23.25;;;;;-144.62;100.00;60556.56;5031844;28;45502;-75
2024/01/13 05:54:13;;;;;;;;;27.25;22.75;;;;;-144.62;100.00;60556.56;5040076;28;45405;-75
2024/01/13 05:56:39;;;;;;;;;34.50;23.50;;;;;-144.62;100.00;60556.56;5035431;27;45367;-75
2024/01/13 05:59:04;;;;;;;;;28.25;21.50;;;;;-144.62;100.00;60556.56;5040820;28;46459;-75
2024/01/13 06:01:30;;;;;;;;;23.75;20.75;;;;;-144.62;100.00;60556.56;5033729;28;51668;-74
2024/01/13 06:03:55;;;;;;;;;28.50;25.50;;;;;-144.62;100.00;60556.56;5041143;28;45576;-75
2024/01/13 06:06:21;;;;;;;;;33.75;22.00;;;;;-144.62;100.00;60556.56;5034479;28;45175;-75
2024/01/13 06:08:46;;;;;;;;;24.25;18.00;;;;;-144.62;100.00;60556.56;5041135;27;45436;-75
2024/01/13 06:11:11;;;;;;;;;34.25;25.25;;;;;-144.62;100.00;60556.56;5033949;28;45420;-75
2024/01/13 06:13:38;;;;;;;;;26.00;20.75;;;;;-144.62;100.00;60556.56;5041101;28;45496;-75
2024/01/13 06:16:04;;;;;;;;;31.50;24.25;;;;;-144.62;100.00;60556.56;5036382;27;45255;-75
2024/01/13 06:18:29;;;;;;;;;29.00;22.25;;;;;-144.62;100.00;60556.56;5039514;28;48104;-75
2024/01/13 06:20:54;;;;;;;;;24.75;21.75;;;;;-144.62;100.00;60556.56;5036668;28;45429;-74
2024/01/13 06:23:21;;;;;;;;;26.25;19.75;;;;;-144.62;100.00;60556.56;5040058;27;45365;-75
2024/01/13 06:25:46;;;;;;;;;18.75;12.25;;;;;-144.62;100.00;60556.56;5035263;27;45271;-75
2024/01/13 06:28:12;;;;;;;;;30.25;18.75;;;;;-144.62;100.00;60556.56;5039498;28;45641;-75
2024/01/13 06:30:37;;;;;;;;;30.50;28.75;;;;;-144.62;100.00;60556.56;5036441;28;57874;-75
2024/01/13 06:33:03;;;;;;;;;28.25;22.00;;;;;-144.62;100.00;60556.56;5039280;28;50658;-75
2024/01/13 06:35:28;;;;;;;;;26.50;18.00;;;;;-144.62;100.00;60556.56;5038766;27;45216;-75
2024/01/13 06:37:53;;;;;;;;;37.50;26.00;;;;;-144.62;100.00;60556.56;5032239;27;48393;-75
2024/01/13 06:40:19;;;;;;;;;31.50;25.00;;;;;-144.62;100.00;60556.56;5038814;28;45333;-75
2024/01/13 06:42:44;;;;;;;;;20.50;11.50;;;;;-144.62;100.00;60556.56;5033430;27;45364;-75
2024/01/13 06:45:09;;;;;;;;;22.00;19.25;;;;;-144.62;100.00;60556.56;5039332;27;45307;-75
2024/01/13 06:47:35;;;;;;;;;24.00;16.75;;;;;-144.62;100.00;60556.56;5035786;28;45415;-75
2024/01/13 06:50:00;;;;;;;;;33.50;27.25;;;;;-144.62;100.00;60556.56;5036455;28;46610;-76
2024/01/13 06:52:25;;;;;;;;;13.25;9.25;;;;;-144.62;100.00;60556.56;5034224;28;45265;-75
2024/01/13 06:54:51;;;;;;;;;25.75;21.50;;;;;-144.62;100.00;60556.56;5038295;28;45572;-75
2024/01/13 06:57:16;;;;;;;;;28.25;21.00;;;;;-144.62;100.00;60556.56;5034004;28;53661;-75
2024/01/13 06:59:43;;;;;;;;;25.50;18.25;;;;;-144.62;100.00;60556.56;5036848;27;45528;-76
2024/01/13 07:02:09;;;;;;;;;31.25;23.00;;;;;-144.62;100.00;60556.56;5032691;28;45379;-75
2024/01/13 07:04:37;;;;;;;;;24.25;17.00;;;;;-144.62;100.00;60556.56;5040370;28;45339;-75
2024/01/13 07:07:02;;;;;;;;;27.25;19.25;;;;;-144.62;100.00;60556.56;5031995;28;47605;-76
2024/01/13 07:09:28;;;;;;;;;32.25;22.00;;;;;-144.62;100.00;60556.56;5039769;27;45228;-75
2024/01/13 07:11:53;;;;;;;;;26.75;24.25;;;;;-144.62;100.00;60556.56;5034630;28;45501;-75
2024/01/13 07:14:18;;;;;;;;;26.75;19.75;;;;;-144.62;100.00;60556.56;5034539;28;45334;-75
2024/01/13 07:16:44;;;;;;;;;24.75;20.75;;;;;-144.62;100.00;60556.56;5035589;28;45388;-76
2024/01/13 07:19:09;;;;;;;;;27.75;18.75;;;;;-144.62;100.00;60556.56;5037319;28;45159;-75
2024/01/13 07:21:35;;;;;;;;;25.25;21.50;;;;;-144.62;100.00;60556.56;5035503;28;45426;-75
2024/01/13 07:24:00;;;;;;;;;33.00;26.25;;;;;-144.62;100.00;60556.56;5038593;28;45317;-75
2024/01/13 07:26:26;;;;;;;;;24.00;19.50;;;;;-144.62;100.00;60556.56;5037216;28;46256;-75
2024/01/13 07:28:51;;;;;;;;;20.75;18.75;;;;;-144.62;100.00;60556.56;5035936;28;54481;-75
2024/01/13 07:31:17;;;;;;;;;28.00;22.00;;;;;-144.62;100.00;60556.56;5034572;28;44706;-76
2024/01/13 07:33:42;;;;;;;;;22.50;19.50;;;;;-144.62;100.00;60556.56;5033997;28;45408;-75
2024/01/13 07:36:08;;;;;;;;;24.00;18.75;;;;;-144.62;100.00;60556.56;5035138;28;51830;-75
2024/01/13 07:38:33;;;;;;;;;31.25;22.50;;;;;-144.62;100.00;60556.56;5034694;28;45417;-75
2024/01/13 07:40:58;;;;;;;;;33.50;21.00;;;;;-144.62;100.00;60556.56;5034262;28;48098;-75
2024/01/13 07:43:23;;;;;;;;;27.75;22.25;;;;;-144.62;100.00;60556.56;5040280;28;45431;-76
2024/01/13 07:45:49;;;;;;;;;28.75;25.25;;;;;-144.62;100.00;60556.56;5031624;28;54212;-75
2024/01/13 07:48:14;;;;;;;;;28.00;22.25;;;;;-144.62;100.00;60556.56;5034605;28;45325;-74
2024/01/13 07:50:39;;;;;;;;;35.50;27.75;;;;;-144.62;100.00;60556.56;5035090;28;45382;-74
2024/01/13 07:53:05;;;;;;;;;39.00;27.00;;;;;-144.62;100.00;60556.56;5037536;28;45394;-74
2024/01/13 07:55:30;;;;;;;;;28.75;22.50;;;;;-144.62;100.00;60556.56;5035980;28;46237;-74
2024/01/13 07:57:55;;;;;;;;;33.00;23.00;;;;;-144.62;100.00;60556.56;5035885;28;45403;-74
2024/01/13 08:00:22;;;;;;;;;36.50;30.25;;;;;-144.62;100.00;60556.56;5037299;28;45448;-75
2024/01/13 08:02:48;;;;;;;;;31.50;24.25;;;;;-144.62;100.00;60556.56;5034243;28;45189;-75
2024/01/13 08:05:14;;;;;;;;;21.75;17.00;;;;;-144.62;100.00;60556.56;5035377;28;48456;-76
2024/01/13 08:07:39;;;;;;;;;39.25;26.25;;;;;-144.62;100.00;60556.56;5033681;27;45418;-76
2024/01/13 08:10:05;;;;;;;;;29.75;23.75;;;;;-144.62;100.00;60556.56;5036699;28;50824;-76
2024/01/13 08:12:30;;;;;;;;;45.25;32.75;;;;;-144.62;100.00;60556.56;5035904;28;45675;-76
2024/01/13 08:14:55;;;;;;;;;40.50;29.25;;;;;-144.62;100.00;60556.56;5036057;28;46997;-76
2024/01/13 08:17:21;;;;;;;;;42.50;28.25;;;;;-144.62;100.00;60556.56;5035518;28;45262;-76
2024/01/13 08:19:46;;;;;;;;;41.25;31.00;;;;;-144.62;100.00;60556.56;5039186;28;45480;-76
2024/01/13 08:22:12;;;;;;;;;31.25;22.75;;;;;-144.62;100.00;60556.56;5032516;28;45413;-76
2024/01/13 08:24:37;;;;;;;;;35.25;27.50;;;;;-144.62;100.00;60556.56;5037251;28;45479;-76
2024/01/13 08:27:02;;;;;;;;;57.50;36.00;;;;;-144.62;100.00;60556.56;5036290;28;45390;-76
2024/01/13 08:29:28;;;;;;;;;40.50;28.75;;;;;-144.62;100.00;60556.56;5038496;28;45354;-76
2024/01/13 08:31:53;;;;;;;;;37.00;31.75;;;;;-144.62;100.00;60556.56;5037354;28;45562;-76
2024/01/13 08:34:18;;;;;;;;;29.25;23.25;;;;;-144.62;100.00;60556.56;5038620;28;45444;-77
2024/01/13 08:36:44;;;;;;;;;38.75;27.25;;;;;-144.62;100.00;60556.56;5032629;28;45270;-76
2024/01/13 08:39:10;;;;;;;;;35.75;26.25;;;;;-144.62;100.00;60556.56;5040146;27;45401;-77
2024/01/13 08:41:36;;;;;;;;;28.25;25.50;;;;;-144.62;100.00;60556.56;5030459;28;45265;-77
2024/01/13 08:44:04;;;;;;;;;36.50;31.25;;;;;-144.62;100.00;60556.56;5038488;28;46214;-77
2024/01/13 08:46:30;;;;;;;;;26.50;22.00;;;;;-144.62;100.00;60556.56;5031823;28;45298;-76
2024/01/13 08:48:55;;;;;;;;;32.25;19.75;;;;;-144.62;100.00;60556.56;5038874;28;45447;-76
2024/01/13 08:51:21;;;;;;;;;31.50;26.50;;;;;-144.62;100.00;60556.56;5031044;28;45392;-76
2024/01/13 08:53:47;;;;;;;;;31.25;28.75;;;;;-144.62;100.00;60556.56;5039999;28;46684;-76
2024/01/13 08:56:12;;;;;;;;;32.50;27.00;;;;;-144.62;100.00;60556.56;5033750;27;46031;-76
2024/01/13 08:58:38;;;;;;;;;34.75;25.75;;;;;-144.62;100.00;60556.56;5041824;28;45353;-76
2024/01/13 09:01:03;;;;;;;;;38.00;31.25;;;;;-144.62;100.00;60556.56;5034179;28;45570;-76
2024/01/13 09:03:29;;;;;;;;;36.50;27.00;;;;;-144.62;100.00;60556.56;5041342;27;45678;-76
2024/01/13 09:05:54;;;;;;;;;27.25;25.75;;;;;-144.62;100.00;60556.56;5033800;28;45460;-76
2024/01/13 09:08:20;;;;;;;;;31.75;23.25;;;;;-144.62;100.00;60556.56;5041642;27;45416;-76
2024/01/13 09:10:45;;;;;;;;;33.50;25.25;;;;;-144.62;100.00;60556.56;5037066;28;45379;-76
2024/01/13 09:13:11;;;;;;;;;37.75;27.00;;;;;-144.62;100.00;60556.56;5035416;27;46473;-75
2024/01/13 09:15:37;;;;;;;;;33.50;24.50;;;;;-144.62;100.00;60556.56;5032696;28;45409;-76
2024/01/13 09:18:03;;;;;;;;;37.50;27.25;;;;;-144.62;100.00;60556.56;5037993;28;45234;-76
2024/01/13 09:20:29;;;;;;;;;40.25;31.75;;;;;-144.62;100.00;60556.56;5038705;28;45241;-76
2024/01/13 09:22:54;;;;;;;;;31.75;25.00;;;;;-144.62;100.00;60556.56;5038908;28;45386;-76
2024/01/13 09:25:20;;;;;;;;;31.50;24.00;;;;;-144.62;100.00;60556.56;5037475;28;45416;-76
2024/01/13 09:27:45;;;;;;;;;32.00;23.25;;;;;-144.62;100.00;60556.56;5038769;28;45280;-76
2024/01/13 09:30:11;;;;;;;;;32.75;23.25;;;;;-144.62;100.00;60556.56;5039440;28;46271;-76
2024/01/13 09:32:36;;;;;;;;;38.00;30.50;;;;;-144.62;100.00;60556.56;5040207;28;46438;-76
2024/01/13 09:35:02;;;;;;;;;45.25;30.25;;;;;-144.62;100.00;60556.56;5039661;28;45315;-76
2024/01/13 09:37:27;;;;;;;;;35.75;18.25;;;;;-144.62;100.00;60556.56;5039138;28;45331;-75
2024/01/13 09:39:53;;;;;;;;;37.75;29.75;;;;;-144.62;100.00;60556.56;5041036;28;45442;-75
2024/01/13 09:42:29;;;;;;;;;52.25;40.25;;;;;-144.62;100.00;60556.56;5035681;28;46464;-76
2024/01/13 09:44:54;;;;;;;;;47.75;33.75;;;;;-144.62;100.00;60556.56;5040406;28;45390;-76
2024/01/13 09:47:20;;;;;;;;;37.25;30.75;;;;;-144.62;100.00;60556.56;5032964;27;45295;-76
2024/01/13 09:49:50;;;;;;;;;20.00;13.25;;;;;-144.62;100.00;60556.56;5041558;28;45218;-76
2024/01/13 09:52:16;;;;;;;;;38.25;32.50;;;;;-144.62;100.00;60556.56;5034735;28;45481;-76
2024/01/13 09:54:47;;;;;;;;;41.25;29.75;;;;;-144.62;100.00;60556.56;5040999;28;45345;-76
2024/01/13 09:57:12;;;;;;;;;31.50;28.25;;;;;-144.62;100.00;60556.56;5034403;28;45266;-76
2024/01/13 09:59:40;;;;;;;;;41.00;30.75;;;;;-144.62;100.00;60556.56;5041340;28;45361;-75
2024/01/13 10:02:12;;;;;;;;;36.50;29.00;;;;;-144.62;100.00;60556.56;5033882;28;45465;-75
2024/01/13 10:04:38;;;;;;;;;44.50;33.00;;;;;-144.62;100.00;60556.56;5039975;27;45305;-77
2024/01/13 10:07:04;;;;;;;;;37.75;30.00;;;;;-144.62;100.00;60556.56;5036905;28;45345;-75
2024/01/13 10:09:30;;;;;;;;;35.25;27.00;;;;;-144.62;100.00;60556.56;5041122;27;45560;-77
2024/01/13 10:11:55;;;;;;;;;44.50;33.75;;;;;-144.62;100.00;60556.56;5038477;27;45370;-75
2024/01/13 10:14:22;;;;;;;;;47.00;36.00;;;;;-144.62;100.00;60556.56;5037759;27;45338;-75
2024/01/13 10:16:49;;;;;;;;;53.25;39.25;;;;;-144.62;100.00;60556.56;5036309;28;46469;-77
2024/01/13 10:19:14;;;;;;;;;41.75;36.25;;;;;-144.62;100.00;60556.56;5038380;27;45590;-77
2024/01/13 10:21:40;;;;;;;;;46.75;40.75;;;;;-144.62;100.00;60556.56;5036961;28;45382;-76
2024/01/13 10:24:05;;;;;;;;;40.50;35.75;;;;;-144.62;100.00;60556.56;5030498;28;45407;-75
2024/01/13 10:26:32;;;;;;;;;44.00;34.75;;;;;-144.62;100.00;60556.56;5037637;27;45669;-75
2024/01/13 10:28:58;;;;;;;;;39.75;32.25;;;;;-144.62;100.00;60556.56;5038357;28;45315;-74
2024/01/13 10:31:24;;;;;;;;;42.25;29.25;;;;;-144.62;100.00;60556.56;5038166;28;45299;-74
2024/01/13 10:33:50;;;;;;;;;38.50;33.75;;;;;-144.62;100.00;60556.56;5039877;28;45369;-75
2024/01/13 10:36:21;;;;;;;;;35.50;28.50;;;;;-144.62;100.00;60556.56;5034599;28;45352;-74
2024/01/13 10:38:46;;;;;;;;;40.25;30.00;;;;;-144.62;100.00;60556.56;5033261;27;45497;-75
2024/01/13 10:41:12;;;;;;;;;34.00;30.00;;;;;-144.62;100.00;60556.56;5028034;28;46123;-75
2024/01/13 10:43:42;;;;;;;;;44.25;34.75;;;;;-144.62;100.00;60556.56;5033533;27;45339;-76
2024/01/13 10:46:11;;;;;;;;;44.00;33.50;;;;;-144.62;100.00;60556.56;5027292;27;45456;-76
2024/01/13 10:48:46;;;;;;;;;39.75;31.00;;;;;-144.62;100.00;60556.56;5041288;27;45244;-76